createdAt,value
2022-09-04T00:00:33.243Z,10.21
2022-09-04T00:03:20.370Z,10.19
2022-09-04T00:05:55.527Z,10.20
2022-09-04T00:08:43.759Z,10.21
2022-09-04T00:11:36.080Z,10.20
2022-09-04T00:14:11.716Z,10.19
2022-09-04T00:16:50.492Z,10.17
2022-09-04T00:19:32.214Z,10.18
2022-09-04T00:22:08.028Z,10.18
2022-09-04T00:24:43.357Z,10.18
2022-09-04T00:27:22.807Z,10.16
2022-09-04T00:30:03.317Z,10.13
2022-09-04T00:32:41.912Z,10.09
2022-09-04T00:35:21.151Z,10.05
2022-09-04T00:38:01.708Z,10.01
2022-09-04T00:40:38.707Z,9.99
2022-09-04T00:43:44.787Z,9.95
2022-09-04T00:46:52.067Z,9.92
2022-09-04T00:58:55.854Z,9.78
2022-09-04T01:01:29.688Z,9.79
2022-09-04T01:44:15.750Z,9.95
2022-09-04T01:47:01.879Z,9.98
2022-09-04T01:49:38.608Z,9.99
2022-09-04T01:52:26.048Z,10.03
2022-09-04T01:55:03.989Z,10.05
2022-09-04T01:57:47.917Z,10.06
2022-09-04T02:00:24.919Z,10.07
2022-09-04T02:03:07.070Z,10.09
2022-09-04T02:05:50.726Z,10.12
2022-09-04T02:08:45.004Z,10.13
2022-09-04T02:11:20.595Z,10.15
2022-09-04T02:14:15.531Z,10.17
2022-09-04T02:17:04.150Z,10.20
2022-09-04T02:19:48.877Z,10.20
2022-09-04T02:22:30.111Z,10.20
2022-09-04T02:25:12.270Z,10.21
2022-09-04T02:27:53.926Z,10.19
2022-09-04T02:30:29.789Z,10.20
2022-09-04T02:33:13.322Z,10.18
2022-09-04T02:35:54.990Z,10.17
2022-09-04T02:38:39.156Z,10.16
2022-09-04T02:41:20.393Z,10.18
2022-09-04T02:44:08.079Z,10.18
2022-09-04T02:46:56.093Z,10.17
2022-09-04T02:49:37.917Z,10.16
2022-09-04T02:52:25.875Z,10.17
2022-09-04T02:55:15.728Z,10.19
2022-09-04T02:57:59.332Z,10.21
2022-09-04T03:00:40.034Z,10.23
2022-09-04T03:03:19.206Z,10.23
2022-09-04T03:05:57.877Z,10.24
2022-09-04T03:08:36.520Z,10.24
2022-09-04T03:11:17.812Z,10.21
2022-09-04T03:14:00.630Z,10.21
2022-09-04T03:16:41.551Z,10.20
2022-09-04T03:19:20.261Z,10.20
2022-09-04T03:21:57.806Z,10.17
2022-09-04T03:24:38.902Z,10.16
2022-09-04T03:27:16.380Z,10.15
2022-09-04T03:29:55.480Z,10.16
2022-09-04T03:32:35.220Z,10.17
2022-09-04T03:35:14.440Z,10.15
2022-09-04T03:38:10.684Z,10.14
2022-09-04T03:40:48.123Z,10.14
2022-09-04T03:43:31.873Z,10.14
2022-09-04T03:46:16.026Z,10.15
2022-09-04T03:49:02.018Z,10.13
2022-09-04T03:51:56.804Z,10.12
2022-09-04T03:54:50.400Z,10.12
2022-09-04T03:57:40.477Z,10.12
2022-09-04T04:00:18.466Z,10.13
2022-09-04T04:03:15.307Z,10.12
2022-09-04T04:05:58.896Z,10.13
2022-09-04T04:09:12.022Z,10.13
2022-09-04T04:12:05.263Z,10.13
2022-09-04T04:15:03.562Z,10.14
2022-09-04T04:17:52.666Z,10.17
2022-09-04T04:20:38.699Z,10.20
2022-09-04T04:23:29.594Z,10.25
2022-09-04T04:26:11.130Z,10.32
2022-09-04T04:29:15.956Z,10.42
2022-09-04T04:32:11.646Z,10.55
2022-09-04T04:35:02.172Z,10.62
2022-09-04T04:37:46.771Z,10.68
2022-09-04T04:40:32.391Z,10.73
2022-09-04T04:43:16.033Z,10.81
2022-09-04T04:45:55.052Z,10.88
2022-09-04T04:48:51.953Z,10.96
2022-09-04T04:51:40.957Z,11.01
2022-09-04T04:54:31.589Z,11.10
2022-09-04T04:57:05.970Z,11.17
2022-09-04T04:59:56.088Z,11.19
2022-09-04T05:02:35.813Z,11.23
2022-09-04T05:05:17.563Z,11.27
2022-09-04T05:08:06.321Z,11.32
2022-09-04T05:10:48.137Z,11.36
2022-09-04T05:13:35.003Z,11.43
2022-09-04T05:16:18.060Z,11.49
2022-09-04T05:19:02.577Z,11.54
2022-09-04T05:21:40.361Z,11.59
2022-09-04T05:24:21.614Z,11.63
2022-09-04T05:26:58.658Z,11.67
2022-09-04T05:29:40.747Z,11.70
2022-09-04T05:32:21.543Z,11.75
2022-09-04T05:35:10.938Z,11.81
2022-09-04T05:37:52.260Z,11.87
2022-09-04T05:40:34.323Z,11.94
2022-09-04T05:43:21.396Z,12.02
2022-09-04T05:46:03.245Z,12.14
2022-09-04T05:48:44.402Z,12.27
2022-09-04T05:51:45.687Z,12.42
2022-09-04T05:54:39.097Z,12.61
2022-09-04T05:57:20.556Z,12.78
2022-09-04T06:00:22.112Z,12.90
2022-09-04T06:03:34.190Z,12.98
2022-09-04T06:06:21.873Z,13.01
2022-09-04T06:09:11.928Z,13.09
2022-09-04T06:12:18.726Z,13.19
2022-09-04T06:15:15.424Z,13.29
2022-09-04T06:18:00.581Z,13.43
2022-09-04T06:20:45.082Z,13.51
2022-09-04T06:23:37.136Z,13.69
2022-09-04T06:26:19.834Z,13.90
2022-09-04T06:29:16.059Z,14.03
2022-09-04T06:32:04.515Z,14.14
2022-09-04T06:35:01.338Z,14.19
2022-09-04T06:37:42.941Z,14.36
2022-09-04T06:40:41.246Z,14.53
2022-09-04T06:43:26.546Z,14.74
2022-09-04T06:46:21.985Z,14.99
2022-09-04T06:49:05.769Z,15.21
2022-09-04T06:51:58.729Z,15.33
2022-09-04T06:54:44.165Z,15.33
2022-09-04T06:57:46.566Z,15.35
2022-09-04T07:00:20.717Z,15.51
2022-09-04T07:03:22.319Z,15.65
2022-09-04T07:06:00.832Z,15.81
2022-09-04T07:08:46.961Z,16.03
2022-09-04T07:11:36.901Z,16.22
2022-09-04T07:14:40.918Z,16.42
2022-09-04T07:17:20.554Z,16.64
2022-09-04T07:20:10.109Z,16.89
2022-09-04T07:23:15.943Z,17.12
2022-09-04T07:25:59.941Z,17.29
2022-09-04T07:28:41.840Z,17.30
2022-09-04T07:31:21.169Z,17.31
2022-09-04T07:33:59.182Z,17.34
2022-09-04T07:36:39.674Z,17.32
2022-09-04T07:39:13.986Z,17.32
2022-09-04T07:41:52.776Z,17.38
2022-09-04T07:44:33.528Z,17.60
2022-09-04T07:47:12.719Z,17.86
2022-09-04T07:49:55.868Z,18.03
2022-09-04T07:52:42.844Z,18.17
2022-09-04T07:55:37.436Z,18.36
2022-09-04T07:58:44.366Z,18.53
2022-09-04T08:01:44.910Z,18.65
2022-09-04T08:04:40.474Z,18.65
2022-09-04T08:07:21.517Z,18.63
2022-09-04T08:10:07.864Z,18.67
2022-09-04T08:13:07.119Z,18.65
2022-09-04T08:15:46.529Z,18.73
2022-09-04T08:18:35.241Z,18.84
2022-09-04T08:21:18.943Z,18.85
2022-09-04T08:24:13.233Z,18.74
2022-09-04T08:26:56.821Z,18.69
2022-09-04T08:29:44.418Z,18.73
2022-09-04T08:36:55.488Z,19.11
2022-09-04T08:39:40.570Z,19.31
2022-09-04T08:42:43.407Z,19.47
2022-09-04T08:49:41.427Z,19.60
2022-09-04T08:52:36.569Z,19.75
2022-09-04T08:55:36.544Z,19.81
2022-09-04T08:58:29.809Z,19.93
2022-09-04T09:01:25.404Z,20.06
2022-09-04T09:04:30.846Z,20.00
2022-09-04T09:07:28.307Z,20.01
2022-09-04T09:10:31.793Z,20.09
2022-09-04T09:13:26.208Z,20.11
2022-09-04T09:16:22.151Z,20.29
2022-09-04T09:19:37.622Z,20.58
2022-09-04T09:22:36.142Z,20.81
2022-09-04T09:25:20.615Z,20.95
2022-09-04T09:28:37.067Z,21.13
2022-09-04T09:31:38.354Z,21.26
2022-09-04T09:34:33.832Z,21.46
2022-09-04T09:37:23.165Z,21.34
2022-09-04T09:40:28.160Z,21.13
2022-09-04T09:43:46.665Z,20.92
2022-09-04T09:46:54.739Z,20.77
2022-09-04T09:50:08.812Z,20.72
2022-09-04T09:53:06.879Z,20.83
2022-09-04T09:56:07.288Z,20.96
2022-09-04T09:59:09.843Z,20.87
2022-09-04T10:02:02.041Z,20.79
2022-09-04T10:05:15.343Z,20.75
2022-09-04T10:08:33.851Z,20.92
2022-09-04T10:11:36.839Z,20.92
2022-09-04T10:14:41.637Z,20.96
2022-09-04T10:17:47.746Z,21.05
2022-09-04T10:20:41.996Z,20.95
2022-09-04T10:23:48.304Z,20.95
2022-09-04T10:27:02.289Z,21.03
2022-09-04T10:30:06.171Z,21.00
2022-09-04T10:33:11.887Z,20.93
2022-09-04T10:36:00.451Z,20.92
2022-09-04T10:39:08.628Z,20.87
2022-09-04T10:42:07.362Z,20.82
2022-09-04T10:45:00.846Z,20.80
2022-09-04T10:48:06.611Z,20.88
2022-09-04T10:51:01.918Z,20.95
2022-09-04T10:53:58.065Z,20.86
2022-09-04T10:56:35.417Z,20.86
2022-09-04T10:59:33.652Z,20.90
2022-09-04T11:02:42.077Z,20.97
2022-09-04T11:05:41.483Z,20.97
2022-09-04T11:08:45.950Z,20.80
2022-09-04T11:11:37.465Z,20.81
2022-09-04T11:14:38.225Z,20.87
2022-09-04T11:17:35.535Z,20.82
2022-09-04T11:20:52.276Z,20.71
2022-09-04T11:24:17.459Z,20.59
2022-09-04T11:27:20.477Z,20.52
2022-09-04T11:30:04.135Z,20.54
2022-09-04T11:33:06.748Z,20.61
2022-09-04T11:36:01.878Z,20.67
2022-09-04T11:38:57.490Z,20.74
2022-09-04T11:42:08.666Z,20.83
2022-09-04T11:45:16.841Z,20.98
2022-09-04T11:48:14.567Z,21.10
2022-09-04T11:51:03.578Z,21.16
2022-09-04T11:54:13.060Z,21.14
2022-09-04T12:00:21.173Z,21.17
2022-09-04T12:03:27.378Z,21.20
2022-09-04T12:06:29.441Z,21.11
2022-09-04T12:09:27.115Z,21.14
2022-09-04T12:12:21.290Z,21.20
2022-09-04T12:15:22.595Z,21.16
2022-09-04T12:18:16.682Z,21.13
2022-09-04T12:21:12.399Z,21.11
2022-09-04T12:24:19.718Z,21.18
2022-09-04T12:27:28.782Z,21.16
2022-09-04T12:30:16.492Z,21.14
2022-09-04T12:33:21.787Z,21.15
2022-09-04T12:36:23.651Z,21.13
2022-09-04T12:39:27.211Z,21.12
2022-09-04T12:42:09.070Z,21.12
2022-09-04T12:44:51.606Z,21.12
2022-09-04T12:47:37.219Z,21.05
2022-09-04T12:50:40.059Z,21.06
2022-09-04T12:53:48.190Z,21.13
2022-09-04T12:56:31.515Z,21.15
2022-09-04T12:59:28.492Z,21.20
2022-09-04T13:02:08.417Z,21.27
2022-09-04T13:04:57.457Z,21.36
2022-09-04T13:07:45.547Z,21.43
2022-09-04T13:19:36.200Z,21.34
2022-09-04T13:31:28.851Z,21.43
2022-09-04T13:34:26.495Z,21.52
2022-09-04T13:41:44.690Z,21.54
2022-09-04T13:44:38.444Z,21.44
2022-09-04T13:55:59.481Z,21.14
2022-09-04T13:58:52.336Z,21.13
2022-09-04T14:05:53.976Z,21.17
2022-09-04T14:08:43.274Z,21.21
2022-09-04T14:25:15.937Z,21.47
2022-09-04T14:36:39.881Z,21.40
2022-09-04T14:48:51.682Z,21.25
2022-09-04T14:51:52.489Z,21.20
2022-09-04T15:07:43.960Z,21.15
2022-09-04T15:10:24.846Z,21.17
2022-09-04T15:13:07.338Z,21.17
2022-09-04T15:15:43.666Z,21.17
2022-09-04T15:18:24.895Z,21.15
2022-09-04T15:21:03.498Z,21.11
2022-09-04T15:23:43.357Z,21.09
2022-09-04T15:26:23.978Z,21.05
2022-09-04T15:29:03.642Z,21.03
2022-09-04T15:31:40.001Z,21.02
2022-09-04T15:34:21.046Z,21.01
2022-09-04T15:36:54.632Z,20.98
2022-09-04T15:39:32.532Z,20.94
2022-09-04T15:42:09.192Z,20.89
2022-09-04T15:44:47.662Z,20.86
2022-09-04T15:47:26.797Z,20.85
2022-09-04T15:53:26.950Z,20.74
2022-09-04T15:56:18.175Z,20.69
2022-09-04T16:02:38.419Z,20.61
2022-09-04T16:05:20.668Z,20.56
2022-09-04T16:12:21.535Z,20.47
2022-09-04T16:15:00.203Z,20.42
2022-09-04T16:17:40.575Z,20.39
2022-09-04T16:20:21.457Z,20.33
2022-09-04T16:22:58.447Z,20.30
2022-09-04T16:25:32.317Z,20.25
2022-09-04T16:28:09.586Z,20.23
2022-09-04T16:30:47.214Z,20.19
2022-09-04T16:33:35.384Z,20.16
2022-09-04T16:36:13.953Z,20.10
2022-09-04T16:38:48.811Z,20.05
2022-09-04T16:41:26.631Z,20.01
2022-09-04T16:44:26.375Z,19.98
2022-09-04T16:47:09.143Z,19.95
2022-09-04T16:49:48.761Z,19.89
2022-09-04T16:52:37.709Z,19.86
2022-09-04T16:55:15.073Z,19.81
2022-09-04T16:58:02.430Z,19.78
2022-09-04T17:01:12.846Z,19.74
2022-09-04T17:04:12.619Z,19.68
2022-09-04T17:07:00.253Z,19.65
2022-09-04T17:09:55.641Z,19.60
2022-09-04T17:12:43.372Z,19.52
2022-09-04T17:15:23.534Z,19.45
2022-09-04T17:17:57.238Z,19.39
2022-09-04T17:21:09.661Z,19.34
2022-09-04T17:28:56.995Z,19.29
2022-09-04T17:29:08.422Z,19.22
2022-09-04T17:29:38.282Z,19.16
2022-09-04T17:32:24.226Z,19.11
2022-09-04T17:40:41.100Z,19.06
2022-09-04T17:40:48.436Z,19.00
2022-09-04T17:41:47.360Z,18.94
2022-09-04T17:44:48.138Z,18.90
2022-09-04T17:47:33.235Z,18.84
2022-09-04T17:50:10.982Z,18.81
2022-09-04T17:53:01.817Z,18.79
2022-09-04T17:55:39.014Z,18.77
2022-09-04T17:58:33.195Z,18.72
2022-09-04T18:01:22.870Z,18.68
2022-09-04T18:04:22.892Z,18.62
2022-09-04T18:07:57.596Z,18.59
2022-09-04T18:10:05.436Z,18.53
2022-09-04T18:12:43.416Z,18.50
2022-09-04T18:15:33.429Z,18.44
2022-09-04T18:18:14.101Z,18.40
2022-09-04T18:20:52.197Z,18.38
2022-09-04T18:23:51.806Z,18.38
2022-09-04T18:26:42.724Z,18.37
2022-09-04T18:30:38.835Z,18.34
2022-09-04T18:37:08.883Z,18.30
2022-09-04T18:37:26.561Z,18.26
2022-09-04T18:39:08.160Z,18.21
2022-09-04T18:50:20.282Z,18.18
2022-09-04T18:50:22.789Z,18.10
2022-09-04T18:51:06.885Z,18.03
2022-09-04T18:51:29.763Z,17.96
2022-09-04T18:54:11.948Z,17.91
2022-09-04T18:56:53.102Z,17.86
2022-09-04T18:59:31.303Z,17.81
2022-09-04T19:02:14.548Z,17.76
2022-09-04T19:04:51.358Z,17.71
2022-09-04T19:07:32.039Z,17.62
2022-09-04T19:10:26.905Z,17.54
2022-09-04T19:13:04.605Z,17.50
2022-09-04T19:15:50.017Z,17.44
2022-09-04T19:18:33.137Z,17.38
2022-09-04T19:21:27.717Z,17.34
2022-09-04T19:24:13.041Z,17.30
2022-09-04T19:26:48.566Z,17.26
2022-09-04T19:29:29.781Z,17.23
2022-09-04T19:32:08.278Z,17.21
2022-09-04T19:34:49.596Z,17.18
2022-09-04T19:40:16.579Z,17.15
2022-09-04T19:45:56.941Z,17.12
2022-09-04T19:46:07.118Z,17.07
2022-09-04T19:46:33.400Z,17.03
2022-09-04T19:50:50.593Z,16.99
2022-09-04T19:53:30.004Z,16.93
2022-09-04T19:55:24.384Z,16.90
2022-09-04T19:58:09.303Z,16.84
2022-09-04T20:00:50.958Z,16.79
2022-09-04T20:03:29.425Z,16.73
2022-09-04T20:06:22.303Z,16.67
2022-09-04T20:09:02.967Z,16.60
2022-09-04T20:11:43.953Z,16.56
2022-09-04T20:14:25.819Z,16.51
2022-09-04T20:17:14.651Z,16.48
2022-09-04T20:19:49.975Z,16.46
2022-09-04T20:22:33.644Z,16.43
2022-09-04T20:25:31.961Z,16.38
2022-09-04T20:28:22.347Z,16.33
2022-09-04T20:31:28.476Z,16.25
2022-09-04T20:34:09.516Z,16.19
2022-09-04T20:36:49.411Z,16.14
2022-09-04T20:39:34.665Z,16.08
2022-09-04T20:42:22.031Z,15.98
2022-09-04T20:46:46.897Z,15.86
2022-09-04T20:52:45.579Z,15.78
2022-09-04T20:52:52.613Z,15.72
2022-09-04T20:54:14.565Z,15.65
2022-09-04T21:00:10.802Z,15.56
2022-09-04T21:03:08.850Z,15.49
2022-09-04T21:03:19.367Z,15.40
2022-09-04T21:06:08.613Z,15.34
2022-09-04T21:08:49.290Z,15.26
2022-09-04T21:11:41.685Z,15.22
2022-09-04T21:14:19.920Z,15.16
2022-09-04T21:17:34.923Z,15.14
2022-09-04T21:20:32.459Z,15.08
2022-09-04T21:23:34.434Z,15.02
2022-09-04T21:26:23.210Z,14.96
2022-09-04T21:29:23.714Z,14.93
2022-09-04T21:32:08.769Z,14.88
2022-09-04T21:34:59.127Z,14.79
2022-09-04T21:37:42.374Z,14.71
2022-09-04T21:40:51.121Z,14.63
2022-09-04T21:43:49.553Z,14.55
2022-09-04T21:46:37.897Z,14.49
2022-09-04T21:49:26.668Z,14.45
2022-09-04T21:52:12.593Z,14.39
2022-09-04T21:56:52.195Z,14.33
2022-09-04T22:02:40.788Z,14.20
2022-09-04T22:02:43.808Z,14.29
2022-09-04T22:05:00.776Z,14.14
2022-09-04T22:12:18.235Z,14.07
2022-09-04T22:13:42.733Z,14.02
2022-09-04T22:13:50.156Z,13.93
2022-09-04T22:16:42.070Z,13.88
2022-09-04T22:19:42.697Z,13.80
2022-09-04T22:22:38.219Z,13.73
2022-09-04T22:25:42.535Z,13.66
2022-09-04T22:28:52.409Z,13.60
2022-09-04T22:31:50.350Z,13.54
2022-09-04T22:35:04.115Z,13.51
2022-09-04T22:38:06.090Z,13.46
2022-09-04T22:40:56.260Z,13.42
2022-09-04T22:43:46.481Z,13.35
2022-09-04T22:46:32.107Z,13.28
2022-09-04T22:49:56.746Z,13.19
2022-09-04T22:52:50.725Z,13.10
2022-09-04T22:55:40.536Z,13.07
2022-09-04T22:58:48.499Z,13.00
2022-09-04T23:01:36.759Z,12.95
2022-09-04T23:04:50.507Z,12.90
2022-09-04T23:12:26.806Z,12.87
2022-09-04T23:13:56.670Z,12.84
2022-09-04T23:14:08.396Z,12.78
2022-09-04T23:17:06.149Z,12.73
2022-09-04T23:26:38.855Z,12.66
2022-09-04T23:26:44.649Z,12.61
2022-09-04T23:26:59.127Z,12.55
2022-09-04T23:30:05.875Z,12.53
2022-09-04T23:33:08.618Z,12.53
2022-09-04T23:36:11.440Z,12.49
2022-09-04T23:39:29.946Z,12.47
2022-09-04T23:42:36.481Z,12.43
2022-09-04T23:46:01.927Z,12.39
2022-09-04T23:49:18.950Z,12.38
2022-09-04T23:52:16.213Z,12.36
2022-09-04T23:55:19.859Z,12.31
2022-09-04T23:58:51.524Z,12.28
